sensor_id;sensor_type;location;lat;lon;timestamp;temperature;humidity
26063;DHT22;13837;48.562;12.108;2022-10-16T00:01:48;12.70;99.90
26063;DHT22;13837;48.562;12.108;2022-10-16T00:04:22;12.70;99.90
26063;DHT22;13837;48.562;12.108;2022-10-16T00:06:47;12.70;99.90
26063;DHT22;13837;48.562;12.108;2022-10-16T00:09:18;12.60;99.90
26063;DHT22;13837;48.562;12.108;2022-10-16T00:11:47;12.50;99.90
26063;DHT22;13837;48.562;12.108;2022-10-16T00:14:16;12.50;99.90
26063;DHT22;13837;48.562;12.108;2022-10-16T00:16:44;12.40;99.90
26063;DHT22;13837;48.562;12.108;2022-10-16T00:19:13;12.40;99.90
26063;DHT22;13837;48.562;12.108;2022-10-16T00:21:42;12.30;99.90
26063;DHT22;13837;48.562;12.108;2022-10-16T00:24:09;12.30;99.90
26063;DHT22;13837;48.562;12.108;2022-10-16T00:26:42;12.20;99.90
26063;DHT22;13837;48.562;12.108;2022-10-16T00:29:11;12.20;99.90
26063;DHT22;13837;48.562;12.108;2022-10-16T00:31:44;12.10;99.90
26063;DHT22;13837;48.562;12.108;2022-10-16T00:34:10;12.10;99.90
26063;DHT22;13837;48.562;12.108;2022-10-16T00:36:38;12.10;99.90
26063;DHT22;13837;48.562;12.108;2022-10-16T00:39:12;12.00;99.90
26063;DHT22;13837;48.562;12.108;2022-10-16T00:41:46;12.00;99.90
26063;DHT22;13837;48.562;12.108;2022-10-16T00:44:47;11.90;99.90
26063;DHT22;13837;48.562;12.108;2022-10-16T00:47:32;11.90;99.90
26063;DHT22;13837;48.562;12.108;2022-10-16T00:50:16;11.90;99.90
26063;DHT22;13837;48.562;12.108;2022-10-16T00:52:48;11.80;99.90
26063;DHT22;13837;48.562;12.108;2022-10-16T00:55:18;11.80;99.90
26063;DHT22;13837;48.562;12.108;2022-10-16T00:57:52;11.70;99.90
26063;DHT22;13837;48.562;12.108;2022-10-16T01:00:26;11.70;99.90
26063;DHT22;13837;48.562;12.108;2022-10-16T01:03:02;11.70;99.90
26063;DHT22;13837;48.562;12.108;2022-10-16T01:05:39;11.60;99.90
26063;DHT22;13837;48.562;12.108;2022-10-16T01:08:30;11.60;99.90
26063;DHT22;13837;48.562;12.108;2022-10-16T01:15:37;11.50;99.90
26063;DHT22;13837;48.562;12.108;2022-10-16T01:18:00;11.50;99.90
26063;DHT22;13837;48.562;12.108;2022-10-16T01:57:54;11.30;99.90
26063;DHT22;13837;48.562;12.108;2022-10-16T02:00:23;11.30;99.90
26063;DHT22;13837;48.562;12.108;2022-10-16T02:02:53;11.40;99.90
26063;DHT22;13837;48.562;12.108;2022-10-16T02:05:28;11.40;99.90
26063;DHT22;13837;48.562;12.108;2022-10-16T02:07:59;11.40;99.90
26063;DHT22;13837;48.562;12.108;2022-10-16T02:10:25;11.30;99.90
26063;DHT22;13837;48.562;12.108;2022-10-16T02:13:22;11.30;99.90
26063;DHT22;13837;48.562;12.108;2022-10-16T02:15:52;11.40;99.90
26063;DHT22;13837;48.562;12.108;2022-10-16T02:18:20;11.40;99.90
26063;DHT22;13837;48.562;12.108;2022-10-16T02:21:17;11.40;99.90
26063;DHT22;13837;48.562;12.108;2022-10-16T02:24:12;11.40;99.90
26063;DHT22;13837;48.562;12.108;2022-10-16T02:26:54;11.40;99.90
26063;DHT22;13837;48.562;12.108;2022-10-16T02:29:28;11.50;99.90
26063;DHT22;13837;48.562;12.108;2022-10-16T02:32:00;11.50;99.90
26063;DHT22;13837;48.562;12.108;2022-10-16T02:34:32;11.50;99.90
26063;DHT22;13837;48.562;12.108;2022-10-16T02:37:01;11.50;99.90
26063;DHT22;13837;48.562;12.108;2022-10-16T02:39:28;11.40;99.90
26063;DHT22;13837;48.562;12.108;2022-10-16T02:41:58;11.40;99.90
26063;DHT22;13837;48.562;12.108;2022-10-16T02:44:26;11.40;99.90
26063;DHT22;13837;48.562;12.108;2022-10-16T02:46:52;11.40;99.90
26063;DHT22;13837;48.562;12.108;2022-10-16T02:49:26;11.30;99.90
26063;DHT22;13837;48.562;12.108;2022-10-16T02:51:52;11.30;99.90
26063;DHT22;13837;48.562;12.108;2022-10-16T02:54:18;11.30;99.90
26063;DHT22;13837;48.562;12.108;2022-10-16T02:56:44;11.30;99.90
26063;DHT22;13837;48.562;12.108;2022-10-16T02:59:12;11.30;99.90
26063;DHT22;13837;48.562;12.108;2022-10-16T03:04:37;11.30;99.90
26063;DHT22;13837;48.562;12.108;2022-10-16T03:07:10;11.30;99.90
26063;DHT22;13837;48.562;12.108;2022-10-16T03:09:44;11.30;99.90
26063;DHT22;13837;48.562;12.108;2022-10-16T03:12:15;11.30;99.90
26063;DHT22;13837;48.562;12.108;2022-10-16T03:14:46;11.20;99.90
26063;DHT22;13837;48.562;12.108;2022-10-16T03:17:12;11.20;99.90
26063;DHT22;13837;48.562;12.108;2022-10-16T03:19:41;11.20;99.90
26063;DHT22;13837;48.562;12.108;2022-10-16T03:22:07;11.10;99.90
26063;DHT22;13837;48.562;12.108;2022-10-16T03:24:34;11.00;99.90
26063;DHT22;13837;48.562;12.108;2022-10-16T03:27:02;11.00;99.90
26063;DHT22;13837;48.562;12.108;2022-10-16T03:29:31;10.90;99.90
26063;DHT22;13837;48.562;12.108;2022-10-16T03:32:01;10.90;99.90
26063;DHT22;13837;48.562;12.108;2022-10-16T03:34:30;10.90;99.90
26063;DHT22;13837;48.562;12.108;2022-10-16T03:36:56;10.90;99.90
26063;DHT22;13837;48.562;12.108;2022-10-16T03:39:22;10.90;99.90
26063;DHT22;13837;48.562;12.108;2022-10-16T03:49:19;10.80;99.90
26063;DHT22;13837;48.562;12.108;2022-10-16T03:51:47;10.70;99.90
26063;DHT22;13837;48.562;12.108;2022-10-16T03:54:14;10.70;99.90
26063;DHT22;13837;48.562;12.108;2022-10-16T03:56:40;10.60;99.90
26063;DHT22;13837;48.562;12.108;2022-10-16T04:06:58;10.50;99.90
26063;DHT22;13837;48.562;12.108;2022-10-16T04:09:24;10.50;99.90
26063;DHT22;13837;48.562;12.108;2022-10-16T04:11:51;10.50;99.90
26063;DHT22;13837;48.562;12.108;2022-10-16T04:14:17;10.50;99.90
26063;DHT22;13837;48.562;12.108;2022-10-16T04:16:43;10.50;99.90
26063;DHT22;13837;48.562;12.108;2022-10-16T04:19:10;10.60;99.90
26063;DHT22;13837;48.562;12.108;2022-10-16T04:21:40;10.60;99.90
26063;DHT22;13837;48.562;12.108;2022-10-16T04:24:06;10.70;99.90
26063;DHT22;13837;48.562;12.108;2022-10-16T04:26:32;10.70;99.90
26063;DHT22;13837;48.562;12.108;2022-10-16T04:29:00;10.80;99.90
26063;DHT22;13837;48.562;12.108;2022-10-16T04:31:29;10.80;99.90
26063;DHT22;13837;48.562;12.108;2022-10-16T04:33:58;10.80;99.90
26063;DHT22;13837;48.562;12.108;2022-10-16T04:36:29;10.90;99.90
26063;DHT22;13837;48.562;12.108;2022-10-16T04:38:55;10.90;99.90
26063;DHT22;13837;48.562;12.108;2022-10-16T04:41:21;10.90;99.90
26063;DHT22;13837;48.562;12.108;2022-10-16T04:43:47;10.90;99.90
26063;DHT22;13837;48.562;12.108;2022-10-16T04:46:16;10.90;99.90
26063;DHT22;13837;48.562;12.108;2022-10-16T04:48:44;10.90;99.90
26063;DHT22;13837;48.562;12.108;2022-10-16T04:51:13;10.90;99.90
26063;DHT22;13837;48.562;12.108;2022-10-16T04:53:44;10.90;99.90
26063;DHT22;13837;48.562;12.108;2022-10-16T04:56:10;10.90;99.90
26063;DHT22;13837;48.562;12.108;2022-10-16T04:58:39;11.00;99.90
26063;DHT22;13837;48.562;12.108;2022-10-16T05:01:09;11.00;99.90
26063;DHT22;13837;48.562;12.108;2022-10-16T05:03:38;11.00;99.90
26063;DHT22;13837;48.562;12.108;2022-10-16T05:06:09;10.90;99.90
26063;DHT22;13837;48.562;12.108;2022-10-16T05:08:43;10.90;99.90
26063;DHT22;13837;48.562;12.108;2022-10-16T05:20:31;11.00;99.90
26063;DHT22;13837;48.562;12.108;2022-10-16T05:22:58;11.00;99.90
26063;DHT22;13837;48.562;12.108;2022-10-16T05:25:29;11.10;99.90
26063;DHT22;13837;48.562;12.108;2022-10-16T05:27:58;11.10;99.90
26063;DHT22;13837;48.562;12.108;2022-10-16T05:30:26;11.20;99.90
26063;DHT22;13837;48.562;12.108;2022-10-16T05:32:57;11.20;99.90
26063;DHT22;13837;48.562;12.108;2022-10-16T05:35:25;11.20;99.90
26063;DHT22;13837;48.562;12.108;2022-10-16T05:37:57;11.20;99.90
26063;DHT22;13837;48.562;12.108;2022-10-16T05:40:28;11.20;99.90
26063;DHT22;13837;48.562;12.108;2022-10-16T05:42:57;11.20;99.90
26063;DHT22;13837;48.562;12.108;2022-10-16T05:45:23;11.20;99.90
26063;DHT22;13837;48.562;12.108;2022-10-16T05:47:51;11.30;99.90
26063;DHT22;13837;48.562;12.108;2022-10-16T05:50:20;11.40;99.90
26063;DHT22;13837;48.562;12.108;2022-10-16T05:52:48;11.40;99.90
26063;DHT22;13837;48.562;12.108;2022-10-16T05:55:15;11.40;99.90
26063;DHT22;13837;48.562;12.108;2022-10-16T05:57:44;11.40;99.90
26063;DHT22;13837;48.562;12.108;2022-10-16T06:00:12;11.40;99.90
26063;DHT22;13837;48.562;12.108;2022-10-16T06:02:44;11.40;99.90
26063;DHT22;13837;48.562;12.108;2022-10-16T06:05:10;11.40;99.90
26063;DHT22;13837;48.562;12.108;2022-10-16T06:07:36;11.40;99.90
26063;DHT22;13837;48.562;12.108;2022-10-16T06:10:08;11.40;99.90
26063;DHT22;13837;48.562;12.108;2022-10-16T06:12:35;11.50;99.90
26063;DHT22;13837;48.562;12.108;2022-10-16T06:15:13;11.40;99.90
26063;DHT22;13837;48.562;12.108;2022-10-16T06:17:44;11.50;99.90
26063;DHT22;13837;48.562;12.108;2022-10-16T06:20:10;11.50;99.90
26063;DHT22;13837;48.562;12.108;2022-10-16T06:22:36;11.50;99.90
26063;DHT22;13837;48.562;12.108;2022-10-16T06:25:02;11.60;99.90
26063;DHT22;13837;48.562;12.108;2022-10-16T06:27:29;11.60;99.90
26063;DHT22;13837;48.562;12.108;2022-10-16T06:29:58;11.70;99.90
26063;DHT22;13837;48.562;12.108;2022-10-16T06:32:27;11.70;99.90
26063;DHT22;13837;48.562;12.108;2022-10-16T06:34:53;11.90;99.90
26063;DHT22;13837;48.562;12.108;2022-10-16T06:37:19;12.00;99.90
26063;DHT22;13837;48.562;12.108;2022-10-16T06:39:45;12.10;99.90
26063;DHT22;13837;48.562;12.108;2022-10-16T06:42:12;12.20;99.90
26063;DHT22;13837;48.562;12.108;2022-10-16T06:44:38;12.20;99.90
26063;DHT22;13837;48.562;12.108;2022-10-16T06:47:04;12.30;99.90
26063;DHT22;13837;48.562;12.108;2022-10-16T06:49:33;12.40;99.90
26063;DHT22;13837;48.562;12.108;2022-10-16T06:52:04;12.50;99.90
26063;DHT22;13837;48.562;12.108;2022-10-16T06:54:32;12.50;99.90
26063;DHT22;13837;48.562;12.108;2022-10-16T06:57:08;12.60;99.90
26063;DHT22;13837;48.562;12.108;2022-10-16T06:59:34;12.60;99.90
26063;DHT22;13837;48.562;12.108;2022-10-16T07:02:00;12.70;99.90
26063;DHT22;13837;48.562;12.108;2022-10-16T07:04:26;12.80;99.90
26063;DHT22;13837;48.562;12.108;2022-10-16T07:06:55;13.10;99.90
26063;DHT22;13837;48.562;12.108;2022-10-16T07:09:34;13.30;99.90
26063;DHT22;13837;48.562;12.108;2022-10-16T07:12:03;13.40;99.90
26063;DHT22;13837;48.562;12.108;2022-10-16T07:14:30;13.60;99.90
26063;DHT22;13837;48.562;12.108;2022-10-16T07:16:59;13.60;99.90
26063;DHT22;13837;48.562;12.108;2022-10-16T07:19:27;13.60;99.90
26063;DHT22;13837;48.562;12.108;2022-10-16T07:21:53;13.60;99.90
26063;DHT22;13837;48.562;12.108;2022-10-16T07:24:20;13.70;99.90
26063;DHT22;13837;48.562;12.108;2022-10-16T07:26:48;14.10;99.90
26063;DHT22;13837;48.562;12.108;2022-10-16T07:29:16;15.60;99.90
26063;DHT22;13837;48.562;12.108;2022-10-16T07:31:43;17.30;99.90
26063;DHT22;13837;48.562;12.108;2022-10-16T07:34:10;18.80;99.90
26063;DHT22;13837;48.562;12.108;2022-10-16T07:36:36;20.10;99.90
26063;DHT22;13837;48.562;12.108;2022-10-16T07:39:02;20.40;99.90
26063;DHT22;13837;48.562;12.108;2022-10-16T07:41:29;19.80;99.90
26063;DHT22;13837;48.562;12.108;2022-10-16T07:43:55;18.80;99.90
26063;DHT22;13837;48.562;12.108;2022-10-16T07:46:22;18.00;99.90
26063;DHT22;13837;48.562;12.108;2022-10-16T07:48:48;17.20;99.90
26063;DHT22;13837;48.562;12.108;2022-10-16T07:51:19;16.90;99.90
26063;DHT22;13837;48.562;12.108;2022-10-16T07:53:46;17.30;99.90
26063;DHT22;13837;48.562;12.108;2022-10-16T07:56:12;18.60;99.90
26063;DHT22;13837;48.562;12.108;2022-10-16T07:58:38;19.60;99.90
26063;DHT22;13837;48.562;12.108;2022-10-16T08:01:08;19.60;99.90
26063;DHT22;13837;48.562;12.108;2022-10-16T08:03:34;19.30;99.90
26063;DHT22;13837;48.562;12.108;2022-10-16T08:06:01;19.10;99.90
26063;DHT22;13837;48.562;12.108;2022-10-16T08:08:28;18.80;99.90
26063;DHT22;13837;48.562;12.108;2022-10-16T08:10:54;18.90;99.90
26063;DHT22;13837;48.562;12.108;2022-10-16T08:13:20;20.20;99.90
26063;DHT22;13837;48.562;12.108;2022-10-16T08:15:46;21.40;99.90
26063;DHT22;13837;48.562;12.108;2022-10-16T08:18:14;22.40;99.90
26063;DHT22;13837;48.562;12.108;2022-10-16T08:20:40;22.60;99.90
26063;DHT22;13837;48.562;12.108;2022-10-16T08:23:07;21.70;99.90
26063;DHT22;13837;48.562;12.108;2022-10-16T08:25:35;21.70;99.90
26063;DHT22;13837;48.562;12.108;2022-10-16T08:28:04;21.20;99.90
26063;DHT22;13837;48.562;12.108;2022-10-16T08:30:31;21.30;99.90
26063;DHT22;13837;48.562;12.108;2022-10-16T08:32:56;22.30;99.90
26063;DHT22;13837;48.562;12.108;2022-10-16T08:35:23;23.70;99.90
26063;DHT22;13837;48.562;12.108;2022-10-16T08:37:49;24.10;99.90
26063;DHT22;13837;48.562;12.108;2022-10-16T08:40:22;24.70;99.90
26063;DHT22;13837;48.562;12.108;2022-10-16T08:51:32;25.80;99.90
26063;DHT22;13837;48.562;12.108;2022-10-16T08:54:37;26.40;99.90
26063;DHT22;13837;48.562;12.108;2022-10-16T08:57:16;26.90;99.90
26063;DHT22;13837;48.562;12.108;2022-10-16T08:59:42;26.80;99.90
26063;DHT22;13837;48.562;12.108;2022-10-16T09:02:37;26.80;99.90
26063;DHT22;13837;48.562;12.108;2022-10-16T09:13:21;27.10;99.90
26063;DHT22;13837;48.562;12.108;2022-10-16T09:15:54;27.00;99.90
26063;DHT22;13837;48.562;12.108;2022-10-16T09:18:43;26.80;99.90
26063;DHT22;13837;48.562;12.108;2022-10-16T09:23:47;27.30;99.90
26063;DHT22;13837;48.562;12.108;2022-10-16T09:26:14;28.20;99.90
26063;DHT22;13837;48.562;12.108;2022-10-16T09:28:41;28.50;99.90
26063;DHT22;13837;48.562;12.108;2022-10-16T09:31:35;29.30;99.90
26063;DHT22;13837;48.562;12.108;2022-10-16T09:34:03;29.50;99.90
26063;DHT22;13837;48.562;12.108;2022-10-16T09:36:38;29.30;99.90
26063;DHT22;13837;48.562;12.108;2022-10-16T09:39:06;30.00;99.90
26063;DHT22;13837;48.562;12.108;2022-10-16T09:41:36;29.30;99.90
26063;DHT22;13837;48.562;12.108;2022-10-16T09:44:04;29.70;99.90
26063;DHT22;13837;48.562;12.108;2022-10-16T09:46:36;29.80;99.90
26063;DHT22;13837;48.562;12.108;2022-10-16T09:49:18;30.10;99.90
26063;DHT22;13837;48.562;12.108;2022-10-16T09:51:45;29.30;99.90
26063;DHT22;13837;48.562;12.108;2022-10-16T09:54:15;29.70;99.90
26063;DHT22;13837;48.562;12.108;2022-10-16T09:56:41;29.70;99.90
26063;DHT22;13837;48.562;12.108;2022-10-16T09:59:18;29.60;99.90
26063;DHT22;13837;48.562;12.108;2022-10-16T10:04:15;30.50;99.90
26063;DHT22;13837;48.562;12.108;2022-10-16T10:06:44;30.30;99.90
26063;DHT22;13837;48.562;12.108;2022-10-16T10:09:26;30.20;99.90
26063;DHT22;13837;48.562;12.108;2022-10-16T10:11:56;30.00;99.90
26063;DHT22;13837;48.562;12.108;2022-10-16T10:14:33;30.10;99.90
26063;DHT22;13837;48.562;12.108;2022-10-16T10:22:23;29.80;99.90
26063;DHT22;13837;48.562;12.108;2022-10-16T10:52:02;30.90;99.90
26063;DHT22;13837;48.562;12.108;2022-10-16T10:55:15;30.20;99.90
26063;DHT22;13837;48.562;12.108;2022-10-16T10:57:49;30.40;99.90
26063;DHT22;13837;48.562;12.108;2022-10-16T11:03:09;30.90;99.90
26063;DHT22;13837;48.562;12.108;2022-10-16T11:05:48;30.90;99.90
26063;DHT22;13837;48.562;12.108;2022-10-16T11:11:40;30.90;99.90
26063;DHT22;13837;48.562;12.108;2022-10-16T11:17:07;30.80;99.90
26063;DHT22;13837;48.562;12.108;2022-10-16T11:22:19;30.50;99.90
26063;DHT22;13837;48.562;12.108;2022-10-16T11:30:23;30.60;99.80
26063;DHT22;13837;48.562;12.108;2022-10-16T11:32:55;30.00;98.50
26063;DHT22;13837;48.562;12.108;2022-10-16T11:38:03;28.50;99.90
26063;DHT22;13837;48.562;12.108;2022-10-16T11:40:37;28.30;99.90
26063;DHT22;13837;48.562;12.108;2022-10-16T11:43:25;28.50;99.90
26063;DHT22;13837;48.562;12.108;2022-10-16T11:45:55;28.80;99.90
26063;DHT22;13837;48.562;12.108;2022-10-16T11:49:03;28.70;99.90
26063;DHT22;13837;48.562;12.108;2022-10-16T11:52:01;28.50;99.90
26063;DHT22;13837;48.562;12.108;2022-10-16T11:54:39;28.20;99.90
26063;DHT22;13837;48.562;12.108;2022-10-16T11:57:22;27.10;99.90
26063;DHT22;13837;48.562;12.108;2022-10-16T11:59:57;25.80;99.90
26063;DHT22;13837;48.562;12.108;2022-10-16T12:02:56;25.60;99.90
26063;DHT22;13837;48.562;12.108;2022-10-16T12:08:17;26.60;99.90
26063;DHT22;13837;48.562;12.108;2022-10-16T12:10:45;26.60;99.90
26063;DHT22;13837;48.562;12.108;2022-10-16T12:13:34;27.10;99.90
26063;DHT22;13837;48.562;12.108;2022-10-16T12:16:20;27.40;99.90
26063;DHT22;13837;48.562;12.108;2022-10-16T12:18:47;27.60;99.90
26063;DHT22;13837;48.562;12.108;2022-10-16T12:21:15;27.80;99.90
26063;DHT22;13837;48.562;12.108;2022-10-16T12:24:03;27.80;99.90
26063;DHT22;13837;48.562;12.108;2022-10-16T12:26:37;27.00;99.90
26063;DHT22;13837;48.562;12.108;2022-10-16T12:29:31;26.70;99.90
26063;DHT22;13837;48.562;12.108;2022-10-16T12:31:58;27.40;99.90
26063;DHT22;13837;48.562;12.108;2022-10-16T12:36:52;27.30;99.90
26063;DHT22;13837;48.562;12.108;2022-10-16T12:39:28;26.60;99.90
26063;DHT22;13837;48.562;12.108;2022-10-16T12:44:47;25.60;99.90
26063;DHT22;13837;48.562;12.108;2022-10-16T12:49:56;25.70;99.90
26063;DHT22;13837;48.562;12.108;2022-10-16T12:52:35;25.90;99.90
26063;DHT22;13837;48.562;12.108;2022-10-16T12:55:04;26.20;99.90
26063;DHT22;13837;48.562;12.108;2022-10-16T13:00:28;26.30;99.90
26063;DHT22;13837;48.562;12.108;2022-10-16T13:22:01;26.80;99.90
26063;DHT22;13837;48.562;12.108;2022-10-16T13:27:40;26.70;99.90
26063;DHT22;13837;48.562;12.108;2022-10-16T13:30:25;26.50;99.90
26063;DHT22;13837;48.562;12.108;2022-10-16T13:33:04;26.40;99.90
26063;DHT22;13837;48.562;12.108;2022-10-16T13:35:32;25.80;99.90
26063;DHT22;13837;48.562;12.108;2022-10-16T13:38:14;25.70;99.90
26063;DHT22;13837;48.562;12.108;2022-10-16T13:41:01;25.80;99.90
26063;DHT22;13837;48.562;12.108;2022-10-16T13:43:49;25.90;99.90
26063;DHT22;13837;48.562;12.108;2022-10-16T13:46:17;26.30;99.90
26063;DHT22;13837;48.562;12.108;2022-10-16T13:48:43;26.80;99.90
26063;DHT22;13837;48.562;12.108;2022-10-16T13:51:18;27.30;99.90
26063;DHT22;13837;48.562;12.108;2022-10-16T13:53:44;27.60;99.90
26063;DHT22;13837;48.562;12.108;2022-10-16T13:56:13;27.40;99.90
26063;DHT22;13837;48.562;12.108;2022-10-16T13:58:39;27.60;99.90
26063;DHT22;13837;48.562;12.108;2022-10-16T14:01:25;27.60;99.90
26063;DHT22;13837;48.562;12.108;2022-10-16T14:03:53;27.50;99.90
26063;DHT22;13837;48.562;12.108;2022-10-16T14:06:25;27.50;99.90
26063;DHT22;13837;48.562;12.108;2022-10-16T14:09:08;27.20;99.90
26063;DHT22;13837;48.562;12.108;2022-10-16T14:11:44;26.70;99.90
26063;DHT22;13837;48.562;12.108;2022-10-16T14:14:12;26.40;99.90
26063;DHT22;13837;48.562;12.108;2022-10-16T14:16:41;26.20;99.90
26063;DHT22;13837;48.562;12.108;2022-10-16T14:19:22;26.00;99.90
26063;DHT22;13837;48.562;12.108;2022-10-16T14:21:50;25.90;99.90
26063;DHT22;13837;48.562;12.108;2022-10-16T14:24:34;25.80;99.90
26063;DHT22;13837;48.562;12.108;2022-10-16T14:27:00;25.80;99.90
26063;DHT22;13837;48.562;12.108;2022-10-16T14:29:28;25.70;99.90
26063;DHT22;13837;48.562;12.108;2022-10-16T14:32:05;25.70;99.90
26063;DHT22;13837;48.562;12.108;2022-10-16T14:34:37;25.60;99.90
26063;DHT22;13837;48.562;12.108;2022-10-16T14:37:30;25.50;99.90
26063;DHT22;13837;48.562;12.108;2022-10-16T14:39:55;25.40;99.90
26063;DHT22;13837;48.562;12.108;2022-10-16T14:42:24;25.40;99.90
26063;DHT22;13837;48.562;12.108;2022-10-16T14:44:51;25.40;99.90
26063;DHT22;13837;48.562;12.108;2022-10-16T14:47:22;24.80;99.90
26063;DHT22;13837;48.562;12.108;2022-10-16T14:49:51;24.70;99.90
26063;DHT22;13837;48.562;12.108;2022-10-16T14:52:18;24.80;99.90
26063;DHT22;13837;48.562;12.108;2022-10-16T14:54:48;24.80;99.90
26063;DHT22;13837;48.562;12.108;2022-10-16T14:57:33;24.90;99.90
26063;DHT22;13837;48.562;12.108;2022-10-16T15:00:01;24.90;99.90
26063;DHT22;13837;48.562;12.108;2022-10-16T15:02:31;24.80;99.90
26063;DHT22;13837;48.562;12.108;2022-10-16T15:04:59;24.80;99.90
26063;DHT22;13837;48.562;12.108;2022-10-16T15:07:27;24.70;99.90
26063;DHT22;13837;48.562;12.108;2022-10-16T15:09:56;24.60;99.90
26063;DHT22;13837;48.562;12.108;2022-10-16T15:12:23;24.50;99.90
26063;DHT22;13837;48.562;12.108;2022-10-16T15:14:48;24.30;99.90
26063;DHT22;13837;48.562;12.108;2022-10-16T15:17:14;24.10;99.90
26063;DHT22;13837;48.562;12.108;2022-10-16T15:19:40;23.90;99.90
26063;DHT22;13837;48.562;12.108;2022-10-16T15:22:06;23.80;99.90
26063;DHT22;13837;48.562;12.108;2022-10-16T15:24:31;23.60;99.90
26063;DHT22;13837;48.562;12.108;2022-10-16T15:26:57;23.50;99.90
26063;DHT22;13837;48.562;12.108;2022-10-16T15:29:23;23.30;99.90
26063;DHT22;13837;48.562;12.108;2022-10-16T15:31:48;23.20;99.90
26063;DHT22;13837;48.562;12.108;2022-10-16T15:34:14;23.00;99.90
26063;DHT22;13837;48.562;12.108;2022-10-16T15:36:40;22.90;99.90
26063;DHT22;13837;48.562;12.108;2022-10-16T15:39:14;22.70;99.90
26063;DHT22;13837;48.562;12.108;2022-10-16T15:41:40;22.60;99.90
26063;DHT22;13837;48.562;12.108;2022-10-16T15:44:07;22.40;99.90
26063;DHT22;13837;48.562;12.108;2022-10-16T15:46:33;22.20;99.90
26063;DHT22;13837;48.562;12.108;2022-10-16T15:49:00;22.10;99.90
26063;DHT22;13837;48.562;12.108;2022-10-16T15:51:27;21.90;99.90
26063;DHT22;13837;48.562;12.108;2022-10-16T15:53:56;21.60;99.90
26063;DHT22;13837;48.562;12.108;2022-10-16T15:56:22;21.40;99.90
26063;DHT22;13837;48.562;12.108;2022-10-16T15:58:51;21.10;99.90
26063;DHT22;13837;48.562;12.108;2022-10-16T16:01:17;20.90;99.90
26063;DHT22;13837;48.562;12.108;2022-10-16T16:03:42;20.80;99.90
26063;DHT22;13837;48.562;12.108;2022-10-16T16:06:11;20.70;99.90
26063;DHT22;13837;48.562;12.108;2022-10-16T16:08:37;20.50;99.90
26063;DHT22;13837;48.562;12.108;2022-10-16T16:11:07;20.30;99.90
26063;DHT22;13837;48.562;12.108;2022-10-16T16:13:33;20.00;99.90
26063;DHT22;13837;48.562;12.108;2022-10-16T16:15:59;19.90;99.90
26063;DHT22;13837;48.562;12.108;2022-10-16T16:18:25;19.70;99.90
26063;DHT22;13837;48.562;12.108;2022-10-16T16:20:52;19.60;99.90
26063;DHT22;13837;48.562;12.108;2022-10-16T16:23:18;19.50;99.90
26063;DHT22;13837;48.562;12.108;2022-10-16T16:25:45;19.40;99.90
26063;DHT22;13837;48.562;12.108;2022-10-16T16:28:10;19.30;99.90
26063;DHT22;13837;48.562;12.108;2022-10-16T16:30:40;19.10;99.90
26063;DHT22;13837;48.562;12.108;2022-10-16T16:33:06;19.00;99.90
26063;DHT22;13837;48.562;12.108;2022-10-16T16:35:32;18.80;99.90
26063;DHT22;13837;48.562;12.108;2022-10-16T16:37:57;18.60;99.90
26063;DHT22;13837;48.562;12.108;2022-10-16T16:40:23;18.40;99.90
26063;DHT22;13837;48.562;12.108;2022-10-16T16:42:49;18.20;99.90
26063;DHT22;13837;48.562;12.108;2022-10-16T16:45:15;18.00;99.90
26063;DHT22;13837;48.562;12.108;2022-10-16T16:47:40;17.90;99.90
26063;DHT22;13837;48.562;12.108;2022-10-16T16:50:06;17.80;99.90
26063;DHT22;13837;48.562;12.108;2022-10-16T16:52:34;17.60;99.90
26063;DHT22;13837;48.562;12.108;2022-10-16T16:54:59;17.50;99.90
26063;DHT22;13837;48.562;12.108;2022-10-16T16:57:26;17.40;99.90
26063;DHT22;13837;48.562;12.108;2022-10-16T16:59:52;17.40;99.90
26063;DHT22;13837;48.562;12.108;2022-10-16T17:02:17;17.30;99.90
26063;DHT22;13837;48.562;12.108;2022-10-16T17:04:43;17.20;99.90
26063;DHT22;13837;48.562;12.108;2022-10-16T17:07:09;17.20;99.90
26063;DHT22;13837;48.562;12.108;2022-10-16T17:09:35;17.10;99.90
26063;DHT22;13837;48.562;12.108;2022-10-16T17:12:01;17.10;99.90
26063;DHT22;13837;48.562;12.108;2022-10-16T17:14:26;17.00;99.90
26063;DHT22;13837;48.562;12.108;2022-10-16T17:16:52;17.00;99.90
26063;DHT22;13837;48.562;12.108;2022-10-16T17:19:19;16.90;99.90
26063;DHT22;13837;48.562;12.108;2022-10-16T17:21:47;16.80;99.90
26063;DHT22;13837;48.562;12.108;2022-10-16T17:24:13;16.80;99.90
26063;DHT22;13837;48.562;12.108;2022-10-16T17:26:40;16.80;99.90
26063;DHT22;13837;48.562;12.108;2022-10-16T17:29:15;16.80;99.90
26063;DHT22;13837;48.562;12.108;2022-10-16T17:31:43;16.90;99.90
26063;DHT22;13837;48.562;12.108;2022-10-16T17:34:09;16.90;99.90
26063;DHT22;13837;48.562;12.108;2022-10-16T17:36:37;17.00;99.90
26063;DHT22;13837;48.562;12.108;2022-10-16T17:39:06;17.10;99.90
26063;DHT22;13837;48.562;12.108;2022-10-16T17:41:33;17.20;99.90
26063;DHT22;13837;48.562;12.108;2022-10-16T17:43:59;17.20;99.90
26063;DHT22;13837;48.562;12.108;2022-10-16T17:46:25;17.30;99.90
26063;DHT22;13837;48.562;12.108;2022-10-16T17:48:53;17.30;99.90
26063;DHT22;13837;48.562;12.108;2022-10-16T17:51:23;17.30;99.90
26063;DHT22;13837;48.562;12.108;2022-10-16T17:53:54;17.30;99.90
26063;DHT22;13837;48.562;12.108;2022-10-16T17:56:21;17.30;99.90
26063;DHT22;13837;48.562;12.108;2022-10-16T17:58:49;17.30;99.90
26063;DHT22;13837;48.562;12.108;2022-10-16T18:01:20;17.30;99.90
26063;DHT22;13837;48.562;12.108;2022-10-16T18:03:50;17.30;99.90
26063;DHT22;13837;48.562;12.108;2022-10-16T18:06:17;17.30;99.90
26063;DHT22;13837;48.562;12.108;2022-10-16T18:08:42;17.20;99.90
26063;DHT22;13837;48.562;12.108;2022-10-16T18:11:09;17.20;99.90
26063;DHT22;13837;48.562;12.108;2022-10-16T18:13:35;17.20;99.90
26063;DHT22;13837;48.562;12.108;2022-10-16T18:16:10;17.20;99.90
26063;DHT22;13837;48.562;12.108;2022-10-16T18:18:37;17.20;99.90
26063;DHT22;13837;48.562;12.108;2022-10-16T18:21:08;17.20;99.90
26063;DHT22;13837;48.562;12.108;2022-10-16T18:23:36;17.10;99.90
26063;DHT22;13837;48.562;12.108;2022-10-16T18:26:02;17.00;99.90
26063;DHT22;13837;48.562;12.108;2022-10-16T18:28:28;16.80;99.90
26063;DHT22;13837;48.562;12.108;2022-10-16T18:30:59;16.70;99.90
26063;DHT22;13837;48.562;12.108;2022-10-16T18:33:25;16.70;99.90
26063;DHT22;13837;48.562;12.108;2022-10-16T18:35:52;16.60;99.90